• Join FlightAware (Why Join?)
  • Login
  • US Flag 
02:45PM EDT


 

Airport Tracker/Info


-or-


 

Live Flight TrackerFlight Track Log ✈ ASQ6115 ✈ 11-Jun-2013 ✈ KIAH - KMFE

Flight Track Log - Related Links

Times and Time Zones

All times are in EDT time to prevent confusion due to time zone crossing. See the ASQ6115 flight status page for this flight to view local times or setup timezone preferences in your user account.

Time Position Orientation Groundspeed Altitude Reporting Facility
EDT Latitude Longitude Course Direction KTS MPH feet Rate Location/Type
02:13PM 29.9614 -95.3389 93° East 168 193 800  Level Houston Center
02:14PM 29.9575 -95.2525 93° East 259 298 3,200 2,040 Climbing Houston Center
02:15PM 29.9586 -95.2311 87° East 232 267 4,000 2,880 Climbing Houston Center
02:15PM 29.9614 -95.1797 86° East 241 277 5,900 2,700 Climbing Houston Center
02:16PM 29.9642 -95.1514 84° East 246 283 6,800 2,520 Climbing Houston Center
02:16PM 29.9500 -95.1039 109° East 243 280 8,500 2,460 Climbing Houston Center
02:17PM 29.9497 -95.0750 91° East 246 283 9,400 1,980 Climbing Houston Center
02:17PM 29.9361 -95.0236 107° East 261 300 10,500 1,440 Climbing Houston Center
02:18PM 29.9189 -94.9997 130° Southeast 268 308 10,900 1,500 Climbing Houston Center
02:19PM 29.8425 -95.0206 193° South 297 342 12,800 1,920 Climbing Houston Center
02:20PM 29.7706 -95.0592 205° Southwest 286 329 15,000 1,500 Climbing Houston Center
02:21PM 29.6747 -95.1100 205° Southwest 314 361 16,000 480 Climbing Houston Center
02:22PM 29.5817 -95.1628 206° Southwest 358 412 16,000 240 Level Houston Center
02:23PM 29.4883 -95.2106 204° Southwest 397 457 16,500 1,140 Climbing Houston Center
02:24PM 29.3703 -95.2739 205° Southwest 394 453 18,400 1,980 Climbing Houston Center
02:25PM 29.2775 -95.3233 205° Southwest 376 433 20,600 1,920 Climbing Houston Center
02:26PM 29.1958 -95.3856 214° Southwest 359 413 22,400 1,500 Climbing Houston Center
02:27PM 29.1211 -95.4611 221° Southwest 357 411 23,700 1,200 Climbing Houston Center
02:28PM 29.0417 -95.5383 220° Southwest 368 423 25,000 1,200 Climbing Houston Center
02:29PM 28.9619 -95.6153 220° Southwest 374 430 26,300 1,260 Climbing Houston Center
02:30PM 28.8653 -95.7092 220° Southwest 379 436 27,700 780 Climbing Houston Center
02:31PM 28.7833 -95.7903 221° Southwest 385 443 28,000 120 Climbing Houston Center
02:32PM 28.6958 -95.8750 220° Southwest 405 466 28,000  Level Houston Center
02:33PM 28.6025 -95.9644 220° Southwest 429 494 28,000  Level Houston Center
02:34PM 28.4961 -96.0683 221° Southwest 441 507 28,000  Level Houston Center
02:35PM 28.3986 -96.1603 220° Southwest 451 519 28,000  Level Houston Center
02:36PM 28.3042 -96.2525 221° Southwest 447 514 28,000 -60 Level Houston Center
02:37PM 28.2081 -96.3433 220° Southwest 448 516 27,900  Descending Houston Center
02:38PM 28.1117 -96.4353 220° Southwest 451 519 28,000  Climbing Houston Center
02:39PM 28.0167 -96.5256 220° Southwest 447 514 28,000  Level Houston Center
02:41PM 27.9039 -96.6339 220° Southwest 443 510 28,000  Level Houston Center
02:42PM 27.8097 -96.7233 220° Southwest 443 510 28,000  Level Houston Center
02:43PM 27.7156 -96.8117 220° Southwest 440 506 28,000  Level Houston Center
02:44PM 27.6231 -96.8997 220° Southwest 437 503 28,000  Level Houston Center
02:45PM 27.5308 -96.9853 219° Southwest 432 497 28,000 -480 Level Houston Center
02:46PM 27.4258 -97.0839 220° Southwest 427 491 27,100 -1,200 Descending Houston Center
02:47PM 27.3350 -97.1697 220° Southwest 426 490 25,600 -1,380 Descending Houston Center
02:48PM 27.2436 -97.2539 219° Southwest 425 489 24,300 -780 Descending Houston Center
02:49PM 27.1533 -97.3400 220° Southwest 426 490 24,000 -180 Descending Houston Center
02:50PM 27.0494 -97.4361 219° Southwest 422 486 24,000 -840 Level Houston Center
02:50PM 26.9861 -97.4969 221° Southwest 426 490 22,600 -2,580 Descending Houston Center
02:51PM 26.9514 -97.5264 217° Southwest 439 505 21,300 -3,240 Descending Houston Center
02:52PM 26.8939 -97.5800 220° Southwest 407 468 19,300 -3,060 Descending Houston Center
02:52PM 26.8667 -97.6083 223° Southwest 406 467 18,200 -2,940 Descending Houston Center
02:52PM 26.8247 -97.6597 228° Southwest 406 467 16,700 -3,000 Descending Houston Center
02:53PM 26.7822 -97.7056 224° Southwest 404 465 15,100 -3,060 Descending Houston Center
02:53PM 26.7461 -97.7500 228° Southwest 404 465 13,600 -3,000 Descending Houston Center
02:54PM 26.7081 -97.7931 225° Southwest 377 434 12,000 -2,820 Descending Houston Center
02:54PM 26.6731 -97.8322 225° Southwest 379 436 10,800 -1,860 Descending Houston Center
02:55PM 26.6339 -97.8783 226° Southwest 361 415 10,100 -1,140 Descending Houston Center
02:55PM 26.6111 -97.9036 225° Southwest 315 362 9,700 -1,260 Descending Houston Center
02:56PM 26.5797 -97.9425 228° Southwest 297 342 8,800 -1,680 Descending Houston Center
02:56PM 26.5531 -97.9697 222° Southwest 265 305 8,000 -1,980 Descending Houston Center
02:57PM 26.5250 -98.0089 231° Southwest 274 315 6,800 -1,920 Descending Houston Center
02:57PM 26.5072 -98.0342 232° Southwest 262 302 6,100 -1,980 Descending Houston Center
02:58PM 26.4817 -98.0753 235° Southwest 266 306 4,800 -2,040 Descending Houston Center
02:58PM 26.4636 -98.1008 232° Southwest 263 303 4,100 -1,680 Descending Houston Center
02:59PM 26.4353 -98.1453 235° Southwest 262 302 3,100 -1,140 Descending Houston Center
03:00PM 26.4219 -98.1644 232° Southwest 260 299 3,000 -120 Descending Houston Center
03:00PM 26.3925 -98.2100 234° Southwest 261 300 3,000  Level Houston Center
03:01PM 26.3711 -98.2411 233° Southwest 261 300 3,000  Level Houston Center
03:01PM 26.3472 -98.2794 235° Southwest 258 297 3,000 -120 Level Houston Center
03:02PM 26.3314 -98.3022 232° Southwest 256 295 2,900 -780 Descending Houston Center
03:02PM 26.3083 -98.3344 231° Southwest 234 269 2,200 -1,080 Descending Houston Center